Terminal Aerodrome Forecast
Issued by NWS Newport/Morehead City, NC

Home | Current Version | Previous Version | Text Only | Print | Product List | Glossary Off
Versions: 1 2 3 4 5 6 7 8 9 10 11 12 13 14 15 16 17 18

000
FTUS42 KMHX 241721
TAFEWN
TAF
KEWN 241721Z 2418/2518 02008KT 1/2SM -SN FZFG VV010
     FM241900 01006KT 2SM -FZRA BR OVC003
     FM250100 35005KT 4SM -RA BR OVC005
     FM250900 31004KT P6SM SCT030=

USA.gov is the U.S. government's official web portal to all federal, state and local government web resources and services.